Time;durP1;ratioP1;P1;durP2;ratioP2;P2;SDS_P1;SDS_P2;PMS_P1;PMS_P2;Temp;Humidity;BMP_temperature;BMP_pressure;BME280_temperature;BME280_humidity;BME280_pressure;Samples;Min_cycle;Max_cycle;Signal;HPM_P1;HPM_P2
2022/01/17 00:00:12;;;;;;;49.53;22.00;;;4.20;99.90;;;;;;5035026;28;20556;-45
2022/01/17 00:02:38;;;;;;;50.33;20.20;;;4.20;99.90;;;;;;5034319;28;20576;-47
2022/01/17 00:05:06;;;;;;;37.87;15.23;;;4.20;99.90;;;;;;5033643;28;20724;-46
2022/01/17 00:07:33;;;;;;;44.37;16.90;;;4.20;99.90;;;;;;5034821;28;20187;-45
2022/01/17 00:09:59;;;;;;;45.80;19.00;;;4.20;99.90;;;;;;5034800;28;20180;-47
2022/01/17 00:12:25;;;;;;;43.10;16.50;;;4.20;99.90;;;;;;5035028;28;20177;-44
2022/01/17 00:14:51;;;;;;;41.77;18.23;;;4.10;99.90;;;;;;5034897;28;20204;-44
2022/01/17 00:19:45;;;;;;;37.23;15.87;;;4.20;99.90;;;;;;5034285;28;20173;-46
2022/01/17 00:22:14;;;;;;;34.00;14.40;;;4.20;99.90;;;;;;5034358;28;20172;-45
2022/01/17 00:24:41;;;;;;;41.00;18.10;;;4.20;99.90;;;;;;5033221;28;20185;-47
2022/01/17 00:27:10;;;;;;;40.60;17.97;;;4.20;99.90;;;;;;5034683;28;20279;-44
2022/01/17 00:29:36;;;;;;;43.17;20.37;;;4.20;99.90;;;;;;5034482;28;20641;-44
2022/01/17 00:32:01;;;;;;;49.07;19.30;;;4.20;99.90;;;;;;5034609;28;20181;-44
2022/01/17 00:34:27;;;;;;;43.60;19.47;;;4.30;99.90;;;;;;5032996;28;20209;-44
2022/01/17 00:36:53;;;;;;;43.33;18.53;;;4.30;99.90;;;;;;5034080;28;20201;-47
2022/01/17 00:39:19;;;;;;;38.20;15.33;;;4.30;99.90;;;;;;5034254;28;20216;-46
2022/01/17 00:41:45;;;;;;;51.77;21.37;;;4.30;99.90;;;;;;5034484;28;20177;-45
2022/01/17 00:44:11;;;;;;;50.83;19.90;;;4.30;99.90;;;;;;5034174;28;20185;-46
2022/01/17 00:46:37;;;;;;;44.93;18.70;;;4.30;99.90;;;;;;5034054;28;20738;-45
2022/01/17 00:49:03;;;;;;;53.20;22.10;;;4.30;99.90;;;;;;5033927;28;20201;-47
2022/01/17 00:51:29;;;;;;;55.17;22.83;;;4.30;99.90;;;;;;5032734;28;20216;-45
2022/01/17 00:53:54;;;;;;;48.27;19.43;;;4.30;99.90;;;;;;5034262;28;20184;-45
2022/01/17 00:56:22;;;;;;;49.33;20.87;;;4.30;99.90;;;;;;5033809;28;20201;-47
2022/01/17 00:58:48;;;;;;;46.77;15.77;;;4.30;99.90;;;;;;5034390;28;20211;-44
2022/01/17 01:01:14;;;;;;;47.37;19.80;;;4.30;99.90;;;;;;5034513;28;20588;-47
2022/01/17 01:03:40;;;;;;;50.03;21.37;;;4.40;99.90;;;;;;5034040;28;20177;-44
2022/01/17 01:06:06;;;;;;;45.67;19.77;;;4.40;99.90;;;;;;5034142;28;20698;-46
2022/01/17 01:08:31;;;;;;;44.47;20.07;;;4.40;99.90;;;;;;5033971;28;20218;-44
2022/01/17 01:10:57;;;;;;;41.93;17.30;;;4.30;99.90;;;;;;5034057;28;20246;-43
2022/01/17 01:13:24;;;;;;;47.27;20.60;;;4.40;99.90;;;;;;5033996;28;20189;-43
2022/01/17 01:29:29;;;;;;;54.93;22.93;;;4.40;99.90;;;;;;5032808;28;20251;-45
2022/01/17 01:32:04;;;;;;;48.73;21.33;;;4.40;99.90;;;;;;5031901;28;20268;-44
2022/01/17 01:34:40;;;;;;;51.53;23.57;;;4.50;99.90;;;;;;5033563;28;20206;-42
2022/01/17 01:37:06;;;;;;;59.97;23.90;;;4.40;99.90;;;;;;5031980;28;20255;-43
2022/01/17 01:39:33;;;;;;;44.30;18.60;;;4.40;99.90;;;;;;5033252;28;20193;-41
2022/01/17 01:41:59;;;;;;;54.43;23.57;;;4.50;99.90;;;;;;5033286;28;20177;-43
2022/01/17 01:44:26;;;;;;;53.33;23.37;;;4.50;99.90;;;;;;5033533;28;20188;-43
2022/01/17 01:46:53;;;;;;;48.80;20.87;;;4.50;99.90;;;;;;5032111;28;20569;-40
2022/01/17 01:49:20;;;;;;;49.57;21.70;;;4.50;99.90;;;;;;5033188;28;20203;-39
2022/01/17 01:51:47;;;;;;;52.97;22.77;;;4.50;99.90;;;;;;5033087;28;20188;-43
2022/01/17 01:54:13;;;;;;;49.17;21.43;;;4.50;99.90;;;;;;5033052;28;20201;-43
2022/01/17 01:56:43;;;;;;;46.47;20.67;;;4.60;99.90;;;;;;5033080;28;20208;-41
2022/01/17 01:59:09;;;;;;;57.43;23.80;;;4.60;99.90;;;;;;5031876;28;20180;-41
2022/01/17 02:01:35;;;;;;;52.93;23.40;;;4.50;99.90;;;;;;5033237;28;20176;-41
2022/01/17 02:04:02;;;;;;;51.70;23.20;;;4.50;99.90;;;;;;5033365;28;20166;-40
2022/01/17 02:06:28;;;;;;;50.50;23.07;;;4.50;99.90;;;;;;5032928;28;20232;-42
2022/01/17 02:08:53;;;;;;;46.73;20.20;;;4.50;99.90;;;;;;5033098;28;20263;-40
2022/01/17 02:11:19;;;;;;;55.33;24.03;;;4.60;99.90;;;;;;5033026;28;20177;-42
2022/01/17 02:13:46;;;;;;;51.87;19.60;;;4.60;99.90;;;;;;5033251;28;20222;-40
2022/01/17 02:16:15;;;;;;;56.17;22.60;;;4.60;99.90;;;;;;5032864;28;20297;-44
2022/01/17 02:18:42;;;;;;;54.20;23.60;;;4.60;99.90;;;;;;5033180;28;20177;-43
2022/01/17 02:21:53;;;;;;;62.33;25.53;;;4.60;99.90;;;;;;5031672;28;20215;-41
2022/01/17 02:23:59;;;;;;;48.00;22.73;;;4.60;99.90;;;;;;5032387;28;20238;-43
2022/01/17 02:26:25;;;;;;;57.73;21.87;;;4.60;99.90;;;;;;5033108;28;20197;-42
2022/01/17 02:28:55;;;;;;;54.67;23.93;;;4.60;99.90;;;;;;5033128;28;20200;-43
2022/01/17 02:31:22;;;;;;;40.20;17.43;;;4.60;99.90;;;;;;5031844;28;20173;-42
2022/01/17 02:33:50;;;;;;;59.50;25.77;;;4.60;99.90;;;;;;5033030;28;20176;-41
2022/01/17 02:36:16;;;;;;;48.00;22.00;;;4.60;99.90;;;;;;5032627;28;20672;-43
2022/01/17 02:38:42;;;;;;;53.13;25.20;;;4.60;99.90;;;;;;5032769;28;20229;-40
2022/01/17 02:41:08;;;;;;;64.10;26.70;;;4.60;99.90;;;;;;5032739;28;20229;-44
2022/01/17 02:43:34;;;;;;;59.50;26.40;;;4.70;99.90;;;;;;5033654;28;20260;-42
2022/01/17 02:48:27;;;;;;;52.20;22.87;;;4.60;99.90;;;;;;5036411;28;20200;-41
2022/01/17 02:50:54;;;;;;;59.13;25.70;;;4.60;99.90;;;;;;5036552;28;20185;-43
2022/01/17 02:53:19;;;;;;;62.00;26.60;;;4.70;99.90;;;;;;5036486;28;20192;-41
2022/01/17 02:55:50;;;;;;;46.07;20.37;;;4.70;99.90;;;;;;5036333;28;20209;-40
2022/01/17 02:58:20;;;;;;;54.87;23.63;;;4.70;99.90;;;;;;5036224;28;20564;-42
2022/01/17 03:00:47;;;;;;;57.40;23.43;;;4.70;99.90;;;;;;5034828;28;20199;-41
2022/01/17 03:03:19;;;;;;;50.77;23.00;;;4.70;99.90;;;;;;5035997;28;20192;-43
2022/01/17 03:05:45;;;;;;;52.80;23.07;;;4.70;99.90;;;;;;5036030;28;20209;-42
2022/01/17 03:08:11;;;;;;;60.97;26.50;;;4.70;99.90;;;;;;5036316;28;20181;-42
2022/01/17 03:10:40;;;;;;;57.40;23.93;;;4.70;99.90;;;;;;5036201;28;20579;-43
2022/01/17 03:13:10;;;;;;;58.47;24.63;;;4.70;99.90;;;;;;5036200;28;20161;-42
2022/01/17 03:15:36;;;;;;;41.40;17.07;;;4.70;99.90;;;;;;5018366;28;20320;-42
2022/01/17 03:18:03;;;;;;;42.40;20.33;;;4.70;99.90;;;;;;5035848;28;20184;-45
2022/01/17 03:20:29;;;;;;;52.07;23.63;;;4.70;99.90;;;;;;5034763;28;20184;-45
2022/01/17 03:22:55;;;;;;;52.90;22.43;;;4.70;99.90;;;;;;5035673;28;20710;-45
2022/01/17 03:25:20;;;;;;;68.07;26.83;;;4.70;99.90;;;;;;5036330;28;20552;-45
2022/01/17 03:27:46;;;;;;;47.93;22.70;;;4.70;99.90;;;;;;5035882;28;20177;-47
2022/01/17 03:30:12;;;;;;;45.03;21.50;;;4.70;99.90;;;;;;5035548;28;20645;-47
2022/01/17 03:32:38;;;;;;;53.47;22.73;;;4.80;99.90;;;;;;5035504;28;20173;-46
2022/01/17 03:35:05;;;;;;;41.27;19.03;;;4.70;99.90;;;;;;5035289;28;20207;-45
2022/01/17 03:37:30;;;;;;;47.30;22.87;;;4.80;99.90;;;;;;5035449;28;20195;-46
2022/01/17 03:39:56;;;;;;;53.83;23.53;;;4.80;99.90;;;;;;5035351;28;20249;-45
2022/01/17 03:42:23;;;;;;;55.97;22.73;;;4.70;99.90;;;;;;5034107;28;20183;-46
2022/01/17 03:44:50;;;;;;;56.97;24.63;;;4.70;99.90;;;;;;5034078;28;20264;-47
2022/01/17 03:47:16;;;;;;;59.10;24.83;;;4.70;99.90;;;;;;5035011;28;20565;-46
2022/01/17 03:49:41;;;;;;;55.70;23.87;;;4.80;99.90;;;;;;5035213;28;20179;-47
2022/01/17 03:52:07;;;;;;;48.37;22.00;;;4.70;99.90;;;;;;5035214;28;20644;-47
2022/01/17 03:54:34;;;;;;;50.57;22.90;;;4.80;99.90;;;;;;5033690;28;20211;-45
2022/01/17 03:56:59;;;;;;;44.70;20.17;;;4.70;99.90;;;;;;5035281;28;20207;-46
2022/01/17 03:59:25;;;;;;;45.63;20.40;;;4.80;99.90;;;;;;5035063;28;20255;-47
2022/01/17 04:01:51;;;;;;;53.93;22.63;;;4.80;99.90;;;;;;5035036;28;20222;-48
2022/01/17 04:04:17;;;;;;;50.43;22.20;;;4.80;99.90;;;;;;5034946;28;20177;-47
2022/01/17 04:06:43;;;;;;;40.10;18.13;;;4.80;99.90;;;;;;5034879;28;20759;-48
2022/01/17 04:09:10;;;;;;;58.43;24.93;;;4.80;99.90;;;;;;5035096;28;20192;-47
2022/01/17 04:11:36;;;;;;;56.47;25.20;;;4.70;99.90;;;;;;5034934;28;20184;-47
2022/01/17 04:14:03;;;;;;;54.37;23.67;;;4.70;99.90;;;;;;5033462;28;20268;-48
2022/01/17 04:16:29;;;;;;;52.93;23.43;;;4.70;99.90;;;;;;5034917;28;20215;-48
2022/01/17 04:18:55;;;;;;;50.70;22.33;;;4.70;99.90;;;;;;5035205;28;20249;-47
2022/01/17 04:21:21;;;;;;;51.57;22.17;;;4.70;99.90;;;;;;5034913;28;20185;-43
2022/01/17 04:23:47;;;;;;;53.20;23.80;;;4.70;99.90;;;;;;5034526;28;20184;-48
2022/01/17 04:26:14;;;;;;;42.00;17.37;;;4.60;99.90;;;;;;5035203;28;20200;-45
2022/01/17 04:28:40;;;;;;;54.37;24.63;;;4.60;99.90;;;;;;5034433;28;20227;-47
2022/01/17 04:31:06;;;;;;;46.70;22.30;;;4.70;99.90;;;;;;5034669;28;20172;-46
2022/01/17 04:33:31;;;;;;;48.03;20.87;;;4.60;99.90;;;;;;5034627;28;20185;-45
2022/01/17 04:35:57;;;;;;;39.50;17.73;;;4.60;99.90;;;;;;5034125;28;20582;-45
2022/01/17 04:38:23;;;;;;;54.93;22.17;;;4.60;99.90;;;;;;5034621;28;20227;-45
2022/01/17 04:41:00;;;;;;;51.23;20.57;;;4.60;99.90;;;;;;5034315;28;20209;-47
2022/01/17 04:46:04;;;;;;;47.17;19.87;;;4.60;99.90;;;;;;5034422;28;20208;-46
2022/01/17 04:48:30;;;;;;;48.53;22.37;;;4.60;99.90;;;;;;5032922;28;20287;-47
2022/01/17 04:50:56;;;;;;;48.30;21.37;;;4.60;99.90;;;;;;5034084;28;20211;-45
2022/01/17 04:53:22;;;;;;;57.90;23.63;;;4.60;99.90;;;;;;5033928;28;20748;-49
2022/01/17 04:55:49;;;;;;;50.20;22.63;;;4.60;99.90;;;;;;5033824;28;20299;-48
2022/01/17 04:58:15;;;;;;;49.40;21.23;;;4.60;99.90;;;;;;5034160;28;20243;-45
2022/01/17 05:00:46;;;;;;;58.83;22.20;;;4.60;99.90;;;;;;5033904;28;20629;-47
2022/01/17 05:03:20;;;;;;;48.60;22.47;;;4.60;99.90;;;;;;5034104;28;20164;-48
2022/01/17 05:05:46;;;;;;;49.80;22.00;;;4.60;99.90;;;;;;5032172;28;20209;-45
2022/01/17 05:08:12;;;;;;;53.00;23.63;;;4.60;99.90;;;;;;5034105;28;20181;-48
2022/01/17 05:10:38;;;;;;;56.83;24.13;;;4.60;99.90;;;;;;5032425;28;20628;-47
2022/01/17 05:13:05;;;;;;;52.20;23.50;;;4.60;99.90;;;;;;5033692;28;20180;-47
2022/01/17 05:15:42;;;;;;;57.03;23.23;;;4.60;99.90;;;;;;5033607;28;20216;-48
2022/01/17 05:20:41;;;;;;;41.33;18.37;;;4.60;99.90;;;;;;5033858;28;20184;-46
2022/01/17 05:23:07;;;;;;;39.67;18.40;;;4.60;99.90;;;;;;5032353;28;20176;-46
2022/01/17 05:25:33;;;;;;;46.60;20.80;;;4.70;99.90;;;;;;5033567;28;20196;-48
2022/01/17 05:27:58;;;;;;;46.70;21.40;;;4.70;99.90;;;;;;5034422;28;20580;-45
2022/01/17 05:30:25;;;;;;;54.40;21.70;;;4.70;99.90;;;;;;5033611;28;20207;-46
2022/01/17 05:33:17;;;;;;;48.07;21.87;;;4.70;99.90;;;;;;5033454;28;20184;-44
2022/01/17 05:35:43;;;;;;;51.30;22.00;;;4.70;99.90;;;;;;5033627;28;20213;-45
2022/01/17 05:38:08;;;;;;;50.03;21.20;;;4.70;99.90;;;;;;5033614;28;20173;-46
2022/01/17 05:40:34;;;;;;;48.70;20.40;;;4.70;99.90;;;;;;5033350;28;20589;-44
2022/01/17 05:43:00;;;;;;;52.03;23.00;;;4.70;99.90;;;;;;5033301;28;20176;-45
2022/01/17 05:45:25;;;;;;;47.07;20.00;;;4.70;99.90;;;;;;5033182;28;20196;-44
2022/01/17 05:47:51;;;;;;;50.33;22.77;;;4.80;99.90;;;;;;5033090;28;20201;-43
2022/01/17 05:50:17;;;;;;;58.40;25.30;;;4.80;99.90;;;;;;5048568;28;20185;-47
2022/01/17 05:52:43;;;;;;;60.10;24.73;;;4.80;99.90;;;;;;5032717;28;20181;-46
2022/01/17 05:55:11;;;;;;;47.33;22.60;;;4.70;99.90;;;;;;5031825;28;20210;-47
2022/01/17 05:57:37;;;;;;;55.00;23.80;;;4.70;99.90;;;;;;5033096;28;20169;-47
2022/01/17 06:00:09;;;;;;;52.13;22.30;;;4.80;99.90;;;;;;5033183;28;20259;-45
2022/01/17 06:02:35;;;;;;;52.23;22.17;;;4.80;99.90;;;;;;5033162;28;20172;-44
2022/01/17 06:05:01;;;;;;;43.03;20.23;;;4.70;99.90;;;;;;5033285;28;20185;-46
2022/01/17 06:07:26;;;;;;;47.77;20.07;;;4.80;99.90;;;;;;5033037;28;20224;-45
2022/01/17 06:09:52;;;;;;;49.90;21.63;;;4.70;99.90;;;;;;5031836;28;20185;-46
2022/01/17 06:12:17;;;;;;;49.60;22.13;;;4.80;99.90;;;;;;5033222;28;20177;-43
2022/01/17 06:14:43;;;;;;;55.67;22.37;;;4.80;99.90;;;;;;5032923;28;20243;-47
2022/01/17 06:17:09;;;;;;;47.97;21.50;;;4.70;99.90;;;;;;5032925;28;20286;-46
2022/01/17 06:19:34;;;;;;;45.60;22.27;;;4.70;99.90;;;;;;5035530;28;20180;-45
2022/01/17 06:22:00;;;;;;;46.70;22.23;;;4.70;99.90;;;;;;5037126;28;20544;-46
2022/01/17 06:24:26;;;;;;;42.20;19.57;;;4.70;99.90;;;;;;5036828;28;20181;-47
2022/01/17 06:26:51;;;;;;;49.90;22.90;;;4.70;99.90;;;;;;5036997;28;20246;-44
2022/01/17 06:29:17;;;;;;;42.30;19.90;;;4.70;99.90;;;;;;5036716;28;20181;-47
2022/01/17 06:31:44;;;;;;;50.07;22.27;;;4.70;99.90;;;;;;5036685;28;20188;-45
2022/01/17 06:34:11;;;;;;;55.57;23.33;;;4.70;99.90;;;;;;5035247;28;20177;-46
2022/01/17 06:36:41;;;;;;;53.80;22.60;;;4.70;99.90;;;;;;5035380;28;20283;-46
2022/01/17 06:39:07;;;;;;;52.63;23.13;;;4.70;99.90;;;;;;5036797;28;20181;-47
2022/01/17 06:41:33;;;;;;;52.57;22.03;;;4.70;99.90;;;;;;5036749;28;20172;-48
2022/01/17 06:43:59;;;;;;;52.83;22.67;;;4.70;99.90;;;;;;5036490;28;20208;-46
2022/01/17 06:46:25;;;;;;;45.17;21.83;;;4.70;99.90;;;;;;5036345;28;20651;-46
2022/01/17 06:48:51;;;;;;;49.57;21.43;;;4.70;99.90;;;;;;5035028;28;20197;-46
2022/01/17 06:51:17;;;;;;;58.43;23.47;;;4.70;99.90;;;;;;5036302;28;20264;-49
2022/01/17 06:53:42;;;;;;;49.90;22.23;;;4.70;99.90;;;;;;5035003;28;20188;-46
2022/01/17 06:56:09;;;;;;;47.57;21.10;;;4.70;99.90;;;;;;5036304;28;20584;-50
2022/01/17 06:58:35;;;;;;;43.23;18.87;;;4.70;99.90;;;;;;5036178;28;20170;-46
2022/01/17 07:01:02;;;;;;;59.47;22.73;;;4.70;99.90;;;;;;5036064;28;20177;-49
2022/01/17 07:03:27;;;;;;;49.00;20.70;;;4.70;99.90;;;;;;5036205;28;20183;-47
2022/01/17 07:05:53;;;;;;;52.77;23.63;;;4.80;99.90;;;;;;5035965;28;20197;-48
2022/01/17 07:08:19;;;;;;;54.97;22.00;;;4.70;99.90;;;;;;5036263;28;20184;-48
2022/01/17 07:10:45;;;;;;;58.20;24.07;;;4.80;99.90;;;;;;5035998;28;20679;-46
2022/01/17 07:13:11;;;;;;;57.93;24.20;;;4.70;99.90;;;;;;5034597;28;20181;-47
2022/01/17 07:15:36;;;;;;;50.50;22.27;;;4.70;99.90;;;;;;5035957;28;20353;-47
2022/01/17 07:18:02;;;;;;;52.07;23.23;;;4.70;99.90;;;;;;5035807;28;20192;-48
2022/01/17 07:20:28;;;;;;;53.27;23.80;;;4.70;99.90;;;;;;5035808;28;20181;-47
2022/01/17 07:22:54;;;;;;;53.07;23.17;;;4.80;99.90;;;;;;5035686;28;20179;-48
2022/01/17 07:25:19;;;;;;;47.37;22.20;;;4.70;99.90;;;;;;5035643;28;20201;-47
2022/01/17 07:27:45;;;;;;;49.67;21.10;;;4.70;99.90;;;;;;5035652;28;20177;-48
2022/01/17 07:30:11;;;;;;;64.47;23.27;;;4.70;99.90;;;;;;5033929;28;20215;-49
2022/01/17 07:32:37;;;;;;;50.93;24.83;;;4.70;99.90;;;;;;5035819;28;20208;-46
2022/01/17 07:35:05;;;;;;;59.30;25.97;;;4.70;99.90;;;;;;5035368;28;20696;-48
2022/01/17 07:37:31;;;;;;;53.90;24.40;;;4.80;99.90;;;;;;5034160;28;20184;-46
2022/01/17 07:39:56;;;;;;;53.43;22.73;;;4.80;99.90;;;;;;5035477;28;20248;-48
2022/01/17 07:42:22;;;;;;;64.07;24.70;;;4.80;99.90;;;;;;5035378;28;20614;-46
2022/01/17 07:44:53;;;;;;;57.10;23.90;;;4.80;99.90;;;;;;5035567;28;20187;-43
2022/01/17 07:47:27;;;;;;;53.80;23.47;;;4.80;99.90;;;;;;5035518;28;20224;-42
2022/01/17 07:49:52;;;;;;;34.57;15.10;;;4.80;99.90;;;;;;5034249;28;20515;-42
2022/01/17 07:52:18;;;;;;;45.20;21.97;;;4.90;99.90;;;;;;5033944;28;20188;-41
2022/01/17 07:54:47;;;;;;;41.57;19.37;;;4.80;99.90;;;;;;5035150;28;20250;-44
2022/01/17 07:57:14;;;;;;;50.90;21.33;;;4.80;99.90;;;;;;5035035;28;20197;-45
2022/01/17 07:59:40;;;;;;;46.50;20.07;;;4.80;99.90;;;;;;5035366;28;20700;-41
2022/01/17 08:02:06;;;;;;;52.67;20.67;;;4.90;99.90;;;;;;5035318;28;20181;-41
2022/01/17 08:04:32;;;;;;;47.83;20.70;;;4.90;99.90;;;;;;5033718;28;20548;-44
2022/01/17 08:06:57;;;;;;;36.53;16.43;;;4.80;99.90;;;;;;5035107;28;20201;-44
2022/01/17 08:09:30;;;;;;;37.80;18.13;;;4.90;99.90;;;;;;5034855;28;20181;-41
2022/01/17 08:11:56;;;;;;;55.73;23.13;;;4.90;99.90;;;;;;5034823;28;20165;-42
2022/01/17 08:14:23;;;;;;;51.10;20.57;;;4.90;99.90;;;;;;5034865;28;20198;-43
2022/01/17 08:16:49;;;;;;;41.27;18.57;;;4.90;99.90;;;;;;5034932;28;20227;-42
2022/01/17 08:19:14;;;;;;;52.27;23.57;;;4.90;99.90;;;;;;5033447;28;20185;-42
2022/01/17 08:21:40;;;;;;;50.37;21.87;;;4.90;99.90;;;;;;5034779;28;20181;-40
2022/01/17 08:24:06;;;;;;;49.23;23.70;;;5.00;99.90;;;;;;5034881;28;20223;-45
2022/01/17 08:26:32;;;;;;;34.90;17.07;;;4.90;99.90;;;;;;5034485;28;20193;-43
2022/01/17 08:28:58;;;;;;;44.63;19.77;;;5.00;99.90;;;;;;5034566;28;20188;-43
2022/01/17 08:31:23;;;;;;;53.70;25.07;;;5.00;99.90;;;;;;5034388;28;20212;-45
2022/01/17 08:33:49;;;;;;;56.57;25.73;;;5.00;99.90;;;;;;5034410;28;20235;-42
2022/01/17 08:36:19;;;;;;;51.73;24.83;;;5.00;99.90;;;;;;5034291;28;20220;-42
2022/01/17 08:38:46;;;;;;;55.53;25.40;;;5.10;99.90;;;;;;5034350;28;20263;-43
2022/01/17 08:41:12;;;;;;;57.70;24.73;;;5.10;99.90;;;;;;5033986;28;20252;-43
2022/01/17 08:43:38;;;;;;;47.43;22.77;;;5.10;99.90;;;;;;5034632;28;20613;-42
2022/01/17 08:46:06;;;;;;;52.10;23.07;;;5.10;99.90;;;;;;5034040;28;20205;-43
2022/01/17 08:48:31;;;;;;;52.83;24.87;;;5.10;99.90;;;;;;5034385;28;20197;-44
2022/01/17 08:50:57;;;;;;;49.97;21.83;;;5.20;99.90;;;;;;5033144;28;20196;-44
2022/01/17 08:53:23;;;;;;;48.30;23.33;;;5.20;99.90;;;;;;5034033;28;20181;-42
2022/01/17 08:55:49;;;;;;;50.63;23.13;;;5.20;99.90;;;;;;5034107;28;20216;-44
2022/01/17 08:58:15;;;;;;;54.47;23.93;;;5.20;99.90;;;;;;5033960;28;20181;-42
2022/01/17 09:00:41;;;;;;;56.77;25.67;;;5.30;99.90;;;;;;5032679;28;20177;-47
2022/01/17 09:03:07;;;;;;;51.63;22.90;;;5.30;99.90;;;;;;5033849;28;20180;-45
2022/01/17 09:05:34;;;;;;;54.10;24.43;;;5.30;99.90;;;;;;5033983;28;20291;-46
2022/01/17 09:08:00;;;;;;;48.93;22.10;;;5.30;99.90;;;;;;5033785;28;20188;-45
2022/01/17 09:10:26;;;;;;;45.10;19.20;;;5.30;99.90;;;;;;5033735;28;20648;-45
2022/01/17 09:12:53;;;;;;;50.37;23.43;;;5.30;99.90;;;;;;5033989;28;20250;-45
2022/01/17 09:15:19;;;;;;;57.93;24.50;;;5.40;99.90;;;;;;5033467;28;20334;-44
2022/01/17 09:17:45;;;;;;;48.30;23.83;;;5.40;99.90;;;;;;5033643;28;20177;-46
2022/01/17 09:20:11;;;;;;;48.00;24.10;;;5.40;99.90;;;;;;5033584;28;20188;-44
2022/01/17 09:22:37;;;;;;;40.03;18.70;;;5.50;99.90;;;;;;5032236;28;20177;-45
2022/01/17 09:25:08;;;;;;;53.47;26.33;;;5.50;99.90;;;;;;5033755;28;20200;-46
2022/01/17 09:27:34;;;;;;;44.33;21.30;;;5.60;99.90;;;;;;5033629;28;20157;-46
2022/01/17 09:30:00;;;;;;;51.20;25.50;;;5.60;99.90;;;;;;5033532;28;20264;-45
2022/01/17 09:32:26;;;;;;;44.60;23.50;;;5.60;99.90;;;;;;5034498;28;20278;-46
2022/01/17 09:34:51;;;;;;;24.43;12.43;;;5.70;99.90;;;;;;5032070;28;20209;-48
2022/01/17 09:37:17;;;;;;;49.53;23.50;;;5.80;99.90;;;;;;5033338;28;20287;-47
2022/01/17 09:39:43;;;;;;;53.87;26.97;;;5.80;99.90;;;;;;5033339;28;20179;-48
2022/01/17 09:42:09;;;;;;;31.60;16.60;;;5.90;99.90;;;;;;5032061;28;20260;-44
2022/01/17 09:44:36;;;;;;;49.17;24.47;;;5.90;99.90;;;;;;5033263;28;20184;-46
2022/01/17 09:47:10;;;;;;;42.57;20.87;;;5.90;99.90;;;;;;5034142;28;20262;-45
2022/01/17 09:49:44;;;;;;;46.10;24.03;;;5.90;99.90;;;;;;5031978;28;20272;-45
2022/01/17 09:54:53;;;;;;;42.97;21.57;;;5.90;99.90;;;;;;5040035;28;20196;-44
2022/01/17 09:57:20;;;;;;;50.87;24.40;;;6.00;99.90;;;;;;5038436;28;20239;-47
2022/01/17 09:59:46;;;;;;;47.57;25.17;;;6.00;99.90;;;;;;5039852;28;20185;-49
2022/01/17 10:02:13;;;;;;;55.93;29.20;;;6.00;99.90;;;;;;5039947;28;20169;-48
2022/01/17 10:04:39;;;;;;;46.40;22.90;;;6.00;99.90;;;;;;5039978;28;20195;-45
2022/01/17 10:07:06;;;;;;;54.70;26.30;;;6.00;99.90;;;;;;5039731;28;20205;-46
2022/01/17 10:09:33;;;;;;;56.20;29.53;;;6.00;99.90;;;;;;5040581;28;20246;-45
2022/01/17 10:12:13;;;;;;;54.67;27.93;;;6.00;99.90;;;;;;5039570;28;20319;-44
2022/01/17 10:14:57;;;;;;;55.43;28.07;;;6.10;99.90;;;;;;5039668;28;20192;-45
2022/01/17 10:17:23;;;;;;;53.40;24.17;;;6.10;99.90;;;;;;5039632;28;20586;-46
2022/01/17 10:20:03;;;;;;;41.57;21.27;;;6.10;99.90;;;;;;5039801;28;20540;-45
2022/01/17 10:22:41;;;;;;;43.10;22.60;;;6.10;99.90;;;;;;5039594;28;20165;-45
2022/01/17 10:25:57;;;;;;;40.77;20.00;;;6.20;99.90;;;;;;5038211;28;20178;-44
2022/01/17 10:28:41;;;;;;;41.97;22.00;;;6.20;99.90;;;;;;5039288;28;20227;-47
2022/01/17 10:34:53;;;;;;;42.17;21.70;;;6.20;99.90;;;;;;5039386;28;20199;-46
2022/01/17 10:36:55;;;;;;;42.50;22.00;;;6.30;99.90;;;;;;5039569;28;20613;-45
2022/01/17 10:39:21;;;;;;;42.77;21.20;;;6.30;99.90;;;;;;5039353;28;20546;-44
2022/01/17 10:41:46;;;;;;;47.17;22.47;;;6.40;99.90;;;;;;5038130;28;20270;-46
2022/01/17 10:44:35;;;;;;;48.00;23.30;;;6.40;99.90;;;;;;5039915;28;20630;-43
2022/01/17 10:47:25;;;;;;;43.20;20.43;;;6.50;99.90;;;;;;5039342;28;20251;-44
2022/01/17 10:50:04;;;;;;;41.73;21.47;;;6.60;99.90;;;;;;5039379;28;20170;-45
2022/01/17 10:52:39;;;;;;;47.43;23.87;;;6.60;99.90;;;;;;5039536;28;20176;-45
2022/01/17 10:55:13;;;;;;;43.13;24.70;;;6.60;99.90;;;;;;5037801;28;20205;-46
2022/01/17 10:57:42;;;;;;;45.23;20.43;;;6.70;99.90;;;;;;5038010;28;20674;-45
2022/01/17 11:00:14;;;;;;;40.47;19.87;;;6.70;99.90;;;;;;5039266;28;20187;-46
2022/01/17 11:02:43;;;;;;;36.63;19.27;;;6.70;99.90;;;;;;5040062;28;20689;-44
2022/01/17 11:05:11;;;;;;;38.83;20.57;;;6.70;99.90;;;;;;5035993;28;20177;-47
2022/01/17 11:07:46;;;;;;;29.00;15.30;;;6.70;99.90;;;;;;5034778;28;20174;-45
2022/01/17 11:10:19;;;;;;;32.83;19.60;;;6.80;99.90;;;;;;5036060;28;20184;-45
2022/01/17 11:12:46;;;;;;;44.53;21.57;;;6.70;99.90;;;;;;5034686;28;20269;-46
2022/01/17 11:15:13;;;;;;;36.40;18.83;;;6.70;99.90;;;;;;5035763;28;20667;-46
2022/01/17 11:17:46;;;;;;;43.03;19.60;;;6.70;99.90;;;;;;5034660;28;20264;-45
2022/01/17 11:20:12;;;;;;;48.77;20.87;;;6.70;99.90;;;;;;5036081;28;20663;-44
2022/01/17 11:22:40;;;;;;;31.77;18.80;;;6.70;99.90;;;;;;5036058;28;20276;-44
2022/01/17 11:25:09;;;;;;;38.23;21.23;;;6.70;99.90;;;;;;5035773;28;20718;-46
2022/01/17 11:27:36;;;;;;;47.47;21.87;;;6.70;99.90;;;;;;5035696;28;20170;-47
2022/01/17 11:30:03;;;;;;;36.07;18.73;;;6.70;99.90;;;;;;5035897;28;20190;-48
2022/01/17 11:32:29;;;;;;;35.67;20.47;;;6.70;99.90;;;;;;5035587;28;20183;-46
2022/01/17 11:34:58;;;;;;;42.10;18.63;;;6.80;99.90;;;;;;5035453;28;20198;-46
2022/01/17 11:37:25;;;;;;;44.37;22.47;;;6.80;99.90;;;;;;5035766;28;20183;-45
2022/01/17 11:39:54;;;;;;;41.50;20.13;;;6.80;99.90;;;;;;5035769;28;20174;-47
2022/01/17 11:42:44;;;;;;;38.50;21.03;;;6.90;99.90;;;;;;5035421;28;20642;-44
2022/01/17 11:45:22;;;;;;;45.93;20.03;;;6.90;99.90;;;;;;5035637;28;20576;-45
2022/01/17 11:47:51;;;;;;;41.30;20.33;;;6.90;99.90;;;;;;5035290;28;20280;-44
2022/01/17 11:50:32;;;;;;;35.83;20.57;;;6.80;99.90;;;;;;5035802;28;20178;-44
2022/01/17 11:53:20;;;;;;;35.37;17.77;;;6.90;99.90;;;;;;5035208;28;20180;-45
2022/01/17 11:55:47;;;;;;;34.93;18.67;;;6.90;99.90;;;;;;5026676;28;20705;-45
2022/01/17 11:58:26;;;;;;;44.13;19.87;;;6.90;99.90;;;;;;5035179;28;20258;-46
2022/01/17 12:00:58;;;;;;;34.83;20.30;;;6.80;99.90;;;;;;5035030;28;20182;-47
2022/01/17 12:03:30;;;;;;;39.90;20.23;;;6.90;99.90;;;;;;5034993;28;20190;-48
2022/01/17 12:06:02;;;;;;;33.73;17.50;;;6.80;99.90;;;;;;5035100;28;20197;-47
2022/01/17 12:08:29;;;;;;;38.77;17.97;;;6.80;99.90;;;;;;5035247;28;20196;-46
2022/01/17 12:11:00;;;;;;;40.67;20.00;;;6.80;99.90;;;;;;5035220;28;20186;-46
2022/01/17 12:13:38;;;;;;;38.93;19.07;;;6.80;99.90;;;;;;5034762;28;20187;-46
2022/01/17 12:16:21;;;;;;;33.77;19.57;;;6.70;99.90;;;;;;5034092;28;20682;-45
2022/01/17 12:18:54;;;;;;;30.30;18.77;;;6.70;99.90;;;;;;5035614;28;20167;-46
2022/01/17 12:21:23;;;;;;;34.80;18.37;;;6.70;99.90;;;;;;5034811;28;20156;-48
2022/01/17 12:23:49;;;;;;;36.03;19.17;;;6.70;99.90;;;;;;5034904;28;20610;-46
2022/01/17 12:26:29;;;;;;;36.43;19.57;;;6.70;99.90;;;;;;5034784;28;20251;-46
2022/01/17 12:28:58;;;;;;;34.23;17.93;;;6.70;99.90;;;;;;5034509;28;20228;-47
2022/01/17 12:31:46;;;;;;;37.00;18.87;;;6.70;99.90;;;;;;5035077;28;20209;-47
2022/01/17 12:34:24;;;;;;;37.10;19.10;;;6.70;99.90;;;;;;5034419;28;20221;-47
2022/01/17 12:36:56;;;;;;;34.80;18.43;;;6.70;99.90;;;;;;5034363;28;20203;-45
2022/01/17 12:39:23;;;;;;;28.07;15.53;;;6.70;99.90;;;;;;5034373;28;20663;-46
2022/01/17 12:41:58;;;;;;;30.97;16.90;;;6.80;99.90;;;;;;5034557;28;20176;-46
2022/01/17 12:44:29;;;;;;;46.07;19.13;;;6.80;99.90;;;;;;5034799;28;20252;-45
2022/01/17 12:47:00;;;;;;;39.97;21.20;;;6.80;99.90;;;;;;5034172;28;20203;-44
2022/01/17 12:49:28;;;;;;;36.53;18.27;;;6.80;99.90;;;;;;5034077;28;20226;-46
2022/01/17 12:51:57;;;;;;;35.57;19.87;;;6.80;99.90;;;;;;5034162;28;20177;-44
2022/01/17 12:54:26;;;;;;;34.20;20.10;;;6.80;99.90;;;;;;5034320;28;20234;-43
2022/01/17 12:56:55;;;;;;;38.53;17.83;;;6.80;99.90;;;;;;5034933;28;20245;-46
2022/01/17 12:59:22;;;;;;;34.17;19.00;;;6.80;99.90;;;;;;5034073;28;20226;-47
2022/01/17 13:01:50;;;;;;;41.63;19.47;;;6.80;99.90;;;;;;5034029;28;20539;-46
2022/01/17 13:04:17;;;;;;;38.57;19.37;;;6.80;99.90;;;;;;5034118;28;20516;-46
2022/01/17 13:06:44;;;;;;;34.50;18.83;;;6.80;99.90;;;;;;5033763;28;20322;-44
2022/01/17 13:09:20;;;;;;;34.50;17.23;;;6.80;99.90;;;;;;5034296;28;20182;-48